sensor_id;sensor_type;location;lat;lon;timestamp;pressure;altitude;pressure_sealevel;temperature;humidity
32875;BME280;40468;42.128;24.750;2022-10-16T00:00:09;100400.38;;;12.82;59.18
32875;BME280;40468;42.128;24.750;2022-10-16T00:01:42;100400.44;;;12.81;58.82
32875;BME280;40468;42.128;24.750;2022-10-16T00:03:13;100404.91;;;12.79;59.21
32875;BME280;40468;42.128;24.750;2022-10-16T00:04:45;100401.59;;;12.75;59.07
32875;BME280;40468;42.128;24.750;2022-10-16T00:06:19;100406.81;;;12.75;59.34
32875;BME280;40468;42.128;24.750;2022-10-16T00:07:51;100412.25;;;12.70;58.95
32875;BME280;40468;42.128;24.750;2022-10-16T00:09:23;100411.44;;;12.68;59.36
32875;BME280;40468;42.128;24.750;2022-10-16T00:10:59;100413.31;;;12.66;59.45
32875;BME280;40468;42.128;24.750;2022-10-16T00:12:32;100410.03;;;12.61;59.25
32875;BME280;40468;42.128;24.750;2022-10-16T00:14:06;100409.25;;;12.59;59.57
32875;BME280;40468;42.128;24.750;2022-10-16T00:15:38;100409.38;;;12.56;59.49
32875;BME280;40468;42.128;24.750;2022-10-16T00:17:09;100414.69;;;12.55;59.42
32875;BME280;40468;42.128;24.750;2022-10-16T00:18:42;100407.81;;;12.52;59.51
32875;BME280;40468;42.128;24.750;2022-10-16T00:20:14;100406.09;;;12.51;59.90
32875;BME280;40468;42.128;24.750;2022-10-16T00:21:45;100411.28;;;12.52;59.85
32875;BME280;40468;42.128;24.750;2022-10-16T00:23:17;100415.56;;;12.53;59.48
32875;BME280;40468;42.128;24.750;2022-10-16T00:24:47;100415.56;;;12.53;59.66
32875;BME280;40468;42.128;24.750;2022-10-16T00:26:20;100415.56;;;12.53;59.86
32875;BME280;40468;42.128;24.750;2022-10-16T00:27:53;100404.38;;;12.51;59.98
32875;BME280;40468;42.128;24.750;2022-10-16T00:29:25;100410.44;;;12.52;59.90
32875;BME280;40468;42.128;24.750;2022-10-16T00:30:57;100408.66;;;12.52;59.92
32875;BME280;40468;42.128;24.750;2022-10-16T00:32:29;100411.34;;;12.51;60.14
32875;BME280;40468;42.128;24.750;2022-10-16T00:34:01;100408.72;;;12.51;59.70
32875;BME280;40468;42.128;24.750;2022-10-16T00:35:32;100408.81;;;12.49;60.05
32875;BME280;40468;42.128;24.750;2022-10-16T00:37:03;100408.81;;;12.49;60.00
32875;BME280;40468;42.128;24.750;2022-10-16T00:38:35;100408.94;;;12.46;60.18
32875;BME280;40468;42.128;24.750;2022-10-16T00:40:08;100413.44;;;12.43;60.03
32875;BME280;40468;42.128;24.750;2022-10-16T00:41:40;100416.19;;;12.40;60.09
32875;BME280;40468;42.128;24.750;2022-10-16T00:43:33;100418.84;;;12.38;60.43
32875;BME280;40468;42.128;24.750;2022-10-16T00:45:05;100415.41;;;12.38;60.75
32875;BME280;40468;42.128;24.750;2022-10-16T00:46:41;100418.84;;;12.38;60.38
32875;BME280;40468;42.128;24.750;2022-10-16T00:48:13;100418.94;;;12.37;60.83
32875;BME280;40468;42.128;24.750;2022-10-16T00:49:46;100422.44;;;12.36;60.69
32875;BME280;40468;42.128;24.750;2022-10-16T00:51:22;100418.31;;;12.30;60.70
32875;BME280;40468;42.128;24.750;2022-10-16T00:52:57;100418.06;;;12.36;60.91
32875;BME280;40468;42.128;24.750;2022-10-16T00:54:31;100427.66;;;12.36;60.95
32875;BME280;40468;42.128;24.750;2022-10-16T00:56:04;100430.38;;;12.34;60.97
32875;BME280;40468;42.128;24.750;2022-10-16T00:57:35;100431.25;;;12.33;61.03
32875;BME280;40468;42.128;24.750;2022-10-16T00:59:14;100428.63;;;12.33;61.07
32875;BME280;40468;42.128;24.750;2022-10-16T01:00:47;100433.09;;;12.31;60.89
32875;BME280;40468;42.128;24.750;2022-10-16T01:02:17;100440.09;;;12.31;60.95
32875;BME280;40468;42.128;24.750;2022-10-16T01:03:49;100441.91;;;12.28;61.03
32875;BME280;40468;42.128;24.750;2022-10-16T01:05:22;100439.34;;;12.27;61.02
32875;BME280;40468;42.128;24.750;2022-10-16T01:06:57;100452.50;;;12.25;61.14
32875;BME280;40468;42.128;24.750;2022-10-16T01:08:39;100450.75;;;12.24;61.47
32875;BME280;40468;42.128;24.750;2022-10-16T01:10:22;100445.63;;;12.23;61.18
32875;BME280;40468;42.128;24.750;2022-10-16T01:12:06;100464.03;;;12.20;61.22
32875;BME280;40468;42.128;24.750;2022-10-16T01:13:42;100454.56;;;12.17;61.41
32875;BME280;40468;42.128;24.750;2022-10-16T01:15:25;100461.59;;;12.15;61.70
32875;BME280;40468;42.128;24.750;2022-10-16T01:17:01;100469.50;;;12.14;61.82
32875;BME280;40468;42.128;24.750;2022-10-16T01:18:39;100458.53;;;12.05;61.87
32875;BME280;40468;42.128;24.750;2022-10-16T01:20:22;100459.25;;;12.09;62.01
32875;BME280;40468;42.128;24.750;2022-10-16T01:21:57;100463.69;;;12.07;62.26
32875;BME280;40468;42.128;24.750;2022-10-16T01:23:39;100466.31;;;12.07;62.66
32875;BME280;40468;42.128;24.750;2022-10-16T01:25:22;100470.78;;;12.03;62.68
32875;BME280;40468;42.128;24.750;2022-10-16T01:27:12;100461.34;;;12.01;62.39
32875;BME280;40468;42.128;24.750;2022-10-16T01:28:51;100463.06;;;12.00;62.66
32875;BME280;40468;42.128;24.750;2022-10-16T01:30:26;100465.75;;;11.99;62.75
32875;BME280;40468;42.128;24.750;2022-10-16T01:32:04;100469.25;;;11.98;62.88
32875;BME280;40468;42.128;24.750;2022-10-16T01:33:41;100465.16;;;11.92;62.80
32875;BME280;40468;42.128;24.750;2022-10-16T01:35:18;100459.31;;;11.86;62.88
32875;BME280;40468;42.128;24.750;2022-10-16T01:36:56;100474.72;;;11.92;63.17
32875;BME280;40468;42.128;24.750;2022-10-16T01:38:33;100470.44;;;11.91;62.92
32875;BME280;40468;42.128;24.750;2022-10-16T01:40:09;100474.00;;;11.88;63.16
32875;BME280;40468;42.128;24.750;2022-10-16T01:41:45;100479.22;;;11.88;62.90
32875;BME280;40468;42.128;24.750;2022-10-16T01:43:24;100461.28;;;11.79;63.31
32875;BME280;40468;42.128;24.750;2022-10-16T01:44:58;100482.84;;;11.84;63.40
32875;BME280;40468;42.128;24.750;2022-10-16T01:46:31;100483.81;;;11.81;63.28
32875;BME280;40468;42.128;24.750;2022-10-16T01:48:05;100484.66;;;11.82;63.45
32875;BME280;40468;42.128;24.750;2022-10-16T01:49:41;100477.88;;;11.78;63.59
32875;BME280;40468;42.128;24.750;2022-10-16T01:51:13;100483.94;;;11.78;63.37
32875;BME280;40468;42.128;24.750;2022-10-16T01:52:49;100485.75;;;11.76;63.44
32875;BME280;40468;42.128;24.750;2022-10-16T01:54:24;100491.81;;;11.77;63.56
32875;BME280;40468;42.128;24.750;2022-10-16T01:55:59;100494.41;;;11.77;63.63
32875;BME280;40468;42.128;24.750;2022-10-16T01:57:32;100489.53;;;11.69;63.82
32875;BME280;40468;42.128;24.750;2022-10-16T01:59:11;100490.25;;;11.73;63.63
32875;BME280;40468;42.128;24.750;2022-10-16T02:00:46;100494.66;;;11.71;63.76
32875;BME280;40468;42.128;24.750;2022-10-16T02:02:20;100490.47;;;11.67;63.77
32875;BME280;40468;42.128;24.750;2022-10-16T02:03:54;100492.97;;;11.70;63.98
32875;BME280;40468;42.128;24.750;2022-10-16T02:05:32;100477.59;;;11.62;64.12
32875;BME280;40468;42.128;24.750;2022-10-16T02:07:06;100491.44;;;11.64;64.07
32875;BME280;40468;42.128;24.750;2022-10-16T02:08:37;100493.13;;;11.65;64.21
32875;BME280;40468;42.128;24.750;2022-10-16T02:10:10;100486.47;;;11.58;64.34
32875;BME280;40468;42.128;24.750;2022-10-16T02:11:43;100490.75;;;11.59;64.50
32875;BME280;40468;42.128;24.750;2022-10-16T02:13:17;100483.91;;;11.56;64.17
32875;BME280;40468;42.128;24.750;2022-10-16T02:14:51;100487.44;;;11.55;64.36
32875;BME280;40468;42.128;24.750;2022-10-16T02:16:32;100491.06;;;11.51;64.52
32875;BME280;40468;42.128;24.750;2022-10-16T02:18:05;100496.53;;;11.45;64.81
32875;BME280;40468;42.128;24.750;2022-10-16T02:19:38;100485.53;;;11.37;64.64
32875;BME280;40468;42.128;24.750;2022-10-16T02:21:14;100488.94;;;11.39;64.97
32875;BME280;40468;42.128;24.750;2022-10-16T02:22:50;100500.31;;;11.36;64.84
32875;BME280;40468;42.128;24.750;2022-10-16T02:24:28;100494.31;;;11.34;65.30
32875;BME280;40468;42.128;24.750;2022-10-16T02:26:05;100497.03;;;11.31;65.42
32875;BME280;40468;42.128;24.750;2022-10-16T02:27:40;100497.94;;;11.30;65.06
32875;BME280;40468;42.128;24.750;2022-10-16T02:29:17;100493.81;;;11.25;65.42
32875;BME280;40468;42.128;24.750;2022-10-16T02:30:54;100492.09;;;11.24;65.07
32875;BME280;40468;42.128;24.750;2022-10-16T02:32:30;100494.69;;;11.24;65.45
32875;BME280;40468;42.128;24.750;2022-10-16T02:34:04;100495.56;;;11.24;65.44
32875;BME280;40468;42.128;24.750;2022-10-16T02:35:38;100492.09;;;11.24;65.56
32875;BME280;40468;42.128;24.750;2022-10-16T02:37:12;100494.75;;;11.22;65.60
32875;BME280;40468;42.128;24.750;2022-10-16T02:38:44;100500.81;;;11.23;65.40
32875;BME280;40468;42.128;24.750;2022-10-16T02:40:17;100505.19;;;11.22;65.69
32875;BME280;40468;42.128;24.750;2022-10-16T02:41:48;100506.13;;;11.21;65.72
32875;BME280;40468;42.128;24.750;2022-10-16T02:43:20;100512.16;;;11.22;65.74
32875;BME280;40468;42.128;24.750;2022-10-16T02:44:52;100508.66;;;11.23;65.91
32875;BME280;40468;42.128;24.750;2022-10-16T02:46:33;100508.66;;;11.23;65.66
32875;BME280;40468;42.128;24.750;2022-10-16T02:48:05;100511.22;;;11.24;65.65
32875;BME280;40468;42.128;24.750;2022-10-16T02:49:38;100508.66;;;11.23;65.91
32875;BME280;40468;42.128;24.750;2022-10-16T02:51:10;100513.81;;;11.24;65.59
32875;BME280;40468;42.128;24.750;2022-10-16T02:52:42;100513.75;;;11.26;65.82
32875;BME280;40468;42.128;24.750;2022-10-16T02:54:14;100512.91;;;11.25;65.86
32875;BME280;40468;42.128;24.750;2022-10-16T02:55:46;100511.97;;;11.26;65.84
32875;BME280;40468;42.128;24.750;2022-10-16T02:57:18;100511.22;;;11.24;65.76
32875;BME280;40468;42.128;24.750;2022-10-16T02:58:48;100519.81;;;11.26;65.72
32875;BME280;40468;42.128;24.750;2022-10-16T03:00:20;100519.88;;;11.25;65.55
32875;BME280;40468;42.128;24.750;2022-10-16T03:01:53;100519.81;;;11.26;65.95
32875;BME280;40468;42.128;24.750;2022-10-16T03:03:27;100520.84;;;11.22;65.88
32875;BME280;40468;42.128;24.750;2022-10-16T03:04:59;100517.38;;;11.22;65.90
32875;BME280;40468;42.128;24.750;2022-10-16T03:06:30;100531.16;;;11.25;65.75
32875;BME280;40468;42.128;24.750;2022-10-16T03:08:02;100532.00;;;11.26;65.93
32875;BME280;40468;42.128;24.750;2022-10-16T03:09:34;100527.69;;;11.25;65.92
32875;BME280;40468;42.128;24.750;2022-10-16T03:11:05;100523.38;;;11.24;65.70
32875;BME280;40468;42.128;24.750;2022-10-16T03:12:37;100527.81;;;11.22;66.16
32875;BME280;40468;42.128;24.750;2022-10-16T03:14:09;100524.34;;;11.21;66.17
32875;BME280;40468;42.128;24.750;2022-10-16T03:15:41;100524.34;;;11.21;66.11
32875;BME280;40468;42.128;24.750;2022-10-16T03:17:14;100525.19;;;11.22;66.09
32875;BME280;40468;42.128;24.750;2022-10-16T03:18:48;100536.47;;;11.22;66.14
32875;BME280;40468;42.128;24.750;2022-10-16T03:20:20;100533.91;;;11.21;66.24
32875;BME280;40468;42.128;24.750;2022-10-16T03:21:51;100530.69;;;11.14;66.06
32875;BME280;40468;42.128;24.750;2022-10-16T03:23:23;100537.59;;;11.15;66.30
32875;BME280;40468;42.128;24.750;2022-10-16T03:24:55;100538.50;;;11.14;66.22
32875;BME280;40468;42.128;24.750;2022-10-16T03:26:26;100545.50;;;11.12;66.08
32875;BME280;40468;42.128;24.750;2022-10-16T03:27:57;100540.47;;;11.07;66.07
32875;BME280;40468;42.128;24.750;2022-10-16T03:29:35;100538.78;;;11.06;66.15
32875;BME280;40468;42.128;24.750;2022-10-16T03:31:07;100542.28;;;11.05;66.15
32875;BME280;40468;42.128;24.750;2022-10-16T03:32:41;100547.56;;;11.04;66.46
32875;BME280;40468;42.128;24.750;2022-10-16T03:34:13;100549.41;;;11.00;66.90
32875;BME280;40468;42.128;24.750;2022-10-16T03:35:50;100546.03;;;10.98;66.51
32875;BME280;40468;42.128;24.750;2022-10-16T03:37:22;100543.41;;;10.98;66.64
32875;BME280;40468;42.128;24.750;2022-10-16T03:38:54;100542.56;;;10.98;66.82
32875;BME280;40468;42.128;24.750;2022-10-16T03:40:26;100544.38;;;10.96;66.67
32875;BME280;40468;42.128;24.750;2022-10-16T03:41:58;100538.41;;;10.92;67.10
32875;BME280;40468;42.128;24.750;2022-10-16T03:43:30;100551.44;;;10.92;66.85
32875;BME280;40468;42.128;24.750;2022-10-16T03:45:03;100548.84;;;10.92;66.86
32875;BME280;40468;42.128;24.750;2022-10-16T03:46:35;100549.72;;;10.91;66.81
32875;BME280;40468;42.128;24.750;2022-10-16T03:48:07;100554.06;;;10.92;66.73
32875;BME280;40468;42.128;24.750;2022-10-16T03:49:39;100542.78;;;10.91;66.88
32875;BME280;40468;42.128;24.750;2022-10-16T03:51:11;100555.81;;;10.91;67.00
32875;BME280;40468;42.128;24.750;2022-10-16T03:52:43;100554.09;;;10.90;66.96
32875;BME280;40468;42.128;24.750;2022-10-16T03:54:15;100558.47;;;10.90;67.02
32875;BME280;40468;42.128;24.750;2022-10-16T03:55:46;100553.25;;;10.90;66.96
32875;BME280;40468;42.128;24.750;2022-10-16T03:57:18;100558.41;;;10.91;67.31
32875;BME280;40468;42.128;24.750;2022-10-16T03:58:49;100562.75;;;10.91;66.98
32875;BME280;40468;42.128;24.750;2022-10-16T04:00:20;100563.63;;;10.91;67.03
32875;BME280;40468;42.128;24.750;2022-10-16T04:01:52;100562.75;;;10.91;67.05
32875;BME280;40468;42.128;24.750;2022-10-16T04:03:26;100561.91;;;10.90;67.13
32875;BME280;40468;42.128;24.750;2022-10-16T04:04:57;100560.22;;;10.89;66.97
32875;BME280;40468;42.128;24.750;2022-10-16T04:06:29;100562.00;;;10.87;67.12
32875;BME280;40468;42.128;24.750;2022-10-16T04:08:01;100569.91;;;10.86;67.36
32875;BME280;40468;42.128;24.750;2022-10-16T04:09:33;100558.59;;;10.85;67.41
32875;BME280;40468;42.128;24.750;2022-10-16T04:11:04;100559.59;;;10.83;67.28
32875;BME280;40468;42.128;24.750;2022-10-16T04:12:36;100553.56;;;10.81;67.61
32875;BME280;40468;42.128;24.750;2022-10-16T04:14:08;100546.81;;;10.75;67.34
32875;BME280;40468;42.128;24.750;2022-10-16T04:15:40;100551.00;;;10.79;67.25
32875;BME280;40468;42.128;24.750;2022-10-16T04:17:12;100560.56;;;10.79;67.66
32875;BME280;40468;42.128;24.750;2022-10-16T04:18:45;100562.34;;;10.78;67.47
32875;BME280;40468;42.128;24.750;2022-10-16T04:20:18;100549.38;;;10.77;67.43
32875;BME280;40468;42.128;24.750;2022-10-16T04:21:50;100562.41;;;10.77;67.37
32875;BME280;40468;42.128;24.750;2022-10-16T04:23:21;100561.50;;;10.78;67.56
32875;BME280;40468;42.128;24.750;2022-10-16T04:24:54;100565.84;;;10.77;67.37
32875;BME280;40468;42.128;24.750;2022-10-16T04:26:25;100558.97;;;10.75;67.66
32875;BME280;40468;42.128;24.750;2022-10-16T04:27:56;100558.97;;;10.75;67.63
32875;BME280;40468;42.128;24.750;2022-10-16T04:29:28;100564.19;;;10.75;67.48
32875;BME280;40468;42.128;24.750;2022-10-16T04:31:03;100567.69;;;10.74;67.30
32875;BME280;40468;42.128;24.750;2022-10-16T04:32:34;100572.97;;;10.72;67.54
32875;BME280;40468;42.128;24.750;2022-10-16T04:34:07;100568.59;;;10.73;67.57
32875;BME280;40468;42.128;24.750;2022-10-16T04:35:39;100565.28;;;10.67;67.36
32875;BME280;40468;42.128;24.750;2022-10-16T04:37:11;100577.31;;;10.72;67.29
32875;BME280;40468;42.128;24.750;2022-10-16T04:38:43;100571.28;;;10.71;67.72
32875;BME280;40468;42.128;24.750;2022-10-16T04:40:15;100567.84;;;10.69;67.29
32875;BME280;40468;42.128;24.750;2022-10-16T04:41:47;100570.56;;;10.66;67.27
32875;BME280;40468;42.128;24.750;2022-10-16T04:43:18;100556.91;;;10.59;67.52
32875;BME280;40468;42.128;24.750;2022-10-16T04:44:50;100569.00;;;10.60;67.51
32875;BME280;40468;42.128;24.750;2022-10-16T04:46:22;100569.16;;;10.56;66.97
32875;BME280;40468;42.128;24.750;2022-10-16T04:47:56;100565.78;;;10.52;67.07
32875;BME280;40468;42.128;24.750;2022-10-16T04:49:30;100579.03;;;10.46;67.33
32875;BME280;40468;42.128;24.750;2022-10-16T04:51:02;100576.59;;;10.41;67.37
32875;BME280;40468;42.128;24.750;2022-10-16T04:52:34;100575.81;;;10.38;67.62
32875;BME280;40468;42.128;24.750;2022-10-16T04:54:06;100572.41;;;10.36;68.38
32875;BME280;40468;42.128;24.750;2022-10-16T04:55:37;100576.78;;;10.35;68.69
32875;BME280;40468;42.128;24.750;2022-10-16T04:57:09;100584.53;;;10.37;69.16
32875;BME280;40468;42.128;24.750;2022-10-16T04:58:41;100587.13;;;10.37;69.60
32875;BME280;40468;42.128;24.750;2022-10-16T05:00:12;100584.50;;;10.38;69.53
32875;BME280;40468;42.128;24.750;2022-10-16T05:01:44;100590.66;;;10.36;69.57
32875;BME280;40468;42.128;24.750;2022-10-16T05:03:16;100597.63;;;10.34;69.25
32875;BME280;40468;42.128;24.750;2022-10-16T05:04:50;100598.66;;;10.30;69.17
32875;BME280;40468;42.128;24.750;2022-10-16T05:06:22;100593.47;;;10.28;69.31
32875;BME280;40468;42.128;24.750;2022-10-16T05:07:54;100603.09;;;10.24;69.41
32875;BME280;40468;42.128;24.750;2022-10-16T05:09:25;100601.50;;;10.20;69.12
32875;BME280;40468;42.128;24.750;2022-10-16T05:10:57;100603.28;;;10.18;69.10
32875;BME280;40468;42.128;24.750;2022-10-16T05:12:30;100599.13;;;10.13;69.31
32875;BME280;40468;42.128;24.750;2022-10-16T05:14:02;100597.38;;;10.13;69.65
32875;BME280;40468;42.128;24.750;2022-10-16T05:15:34;100603.50;;;10.11;69.50
32875;BME280;40468;42.128;24.750;2022-10-16T05:17:06;100602.66;;;10.10;69.82
32875;BME280;40468;42.128;24.750;2022-10-16T05:18:38;100612.25;;;10.08;69.80
32875;BME280;40468;42.128;24.750;2022-10-16T05:20:12;100611.50;;;10.05;69.80
32875;BME280;40468;42.128;24.750;2022-10-16T05:21:44;100607.25;;;10.02;70.23
32875;BME280;40468;42.128;24.750;2022-10-16T05:23:16;100611.66;;;10.00;70.01
32875;BME280;40468;42.128;24.750;2022-10-16T05:24:48;100612.63;;;9.96;70.34
32875;BME280;40468;42.128;24.750;2022-10-16T05:26:20;100610.09;;;9.94;70.45
32875;BME280;40468;42.128;24.750;2022-10-16T05:27:52;100614.44;;;9.94;70.74
32875;BME280;40468;42.128;24.750;2022-10-16T05:29:24;100618.78;;;9.93;70.96
32875;BME280;40468;42.128;24.750;2022-10-16T05:30:56;100612.78;;;9.91;71.04
32875;BME280;40468;42.128;24.750;2022-10-16T05:32:27;100619.66;;;9.94;71.04
32875;BME280;40468;42.128;24.750;2022-10-16T05:34:10;100627.47;;;9.94;71.04
32875;BME280;40468;42.128;24.750;2022-10-16T05:35:43;100626.59;;;9.93;71.38
32875;BME280;40468;42.128;24.750;2022-10-16T05:37:15;100632.59;;;9.95;71.30
32875;BME280;40468;42.128;24.750;2022-10-16T05:38:50;100634.56;;;9.87;71.78
32875;BME280;40468;42.128;24.750;2022-10-16T05:40:21;100631.09;;;9.88;71.67
32875;BME280;40468;42.128;24.750;2022-10-16T05:41:53;100633.53;;;9.93;71.84
32875;BME280;40468;42.128;24.750;2022-10-16T05:43:26;100637.81;;;9.95;71.79
32875;BME280;40468;42.128;24.750;2022-10-16T05:44:58;100643.91;;;9.94;71.67
32875;BME280;40468;42.128;24.750;2022-10-16T05:46:31;100636.31;;;9.87;71.46
32875;BME280;40468;42.128;24.750;2022-10-16T05:48:05;100644.00;;;9.91;71.52
32875;BME280;40468;42.128;24.750;2022-10-16T05:49:37;100643.94;;;9.93;71.15
32875;BME280;40468;42.128;24.750;2022-10-16T05:51:12;100642.00;;;9.99;71.39
32875;BME280;40468;42.128;24.750;2022-10-16T05:52:44;100650.53;;;10.05;71.16
32875;BME280;40468;42.128;24.750;2022-10-16T05:54:16;100649.59;;;10.07;70.77
32875;BME280;40468;42.128;24.750;2022-10-16T05:55:52;100652.22;;;10.07;70.62
32875;BME280;40468;42.128;24.750;2022-10-16T05:57:24;100653.97;;;10.07;70.71
32875;BME280;40468;42.128;24.750;2022-10-16T05:58:58;100656.41;;;10.11;70.19
32875;BME280;40468;42.128;24.750;2022-10-16T06:00:30;100658.09;;;10.14;70.29
32875;BME280;40468;42.128;24.750;2022-10-16T06:02:02;100666.63;;;10.19;70.48
32875;BME280;40468;42.128;24.750;2022-10-16T06:03:34;100657.00;;;10.21;70.23
32875;BME280;40468;42.128;24.750;2022-10-16T06:05:06;100659.47;;;10.25;69.93
32875;BME280;40468;42.128;24.750;2022-10-16T06:06:40;100666.19;;;10.34;70.14
32875;BME280;40468;42.128;24.750;2022-10-16T06:08:12;100665.03;;;10.43;69.96
32875;BME280;40468;42.128;24.750;2022-10-16T06:09:44;100674.31;;;10.53;69.91
32875;BME280;40468;42.128;24.750;2022-10-16T06:11:21;100670.72;;;10.56;69.59
32875;BME280;40468;42.128;24.750;2022-10-16T06:12:54;100671.44;;;10.61;69.11
32875;BME280;40468;42.128;24.750;2022-10-16T06:14:25;100672.81;;;10.73;69.25
32875;BME280;40468;42.128;24.750;2022-10-16T06:15:59;100671.66;;;10.81;68.79
32875;BME280;40468;42.128;24.750;2022-10-16T06:17:31;100660.78;;;10.95;68.63
32875;BME280;40468;42.128;24.750;2022-10-16T06:19:03;100664.56;;;11.11;68.62
32875;BME280;40468;42.128;24.750;2022-10-16T06:20:36;100669.44;;;11.22;68.12
32875;BME280;40468;42.128;24.750;2022-10-16T06:22:09;100676.75;;;11.37;68.05
32875;BME280;40468;42.128;24.750;2022-10-16T06:25:31;100666.25;;;11.64;67.25
32875;BME280;40468;42.128;24.750;2022-10-16T06:27:03;100664.16;;;11.74;66.78
32875;BME280;40468;42.128;24.750;2022-10-16T06:28:35;100671.41;;;11.91;66.78
32875;BME280;40468;42.128;24.750;2022-10-16T06:30:08;100669.88;;;12.09;66.48
32875;BME280;40468;42.128;24.750;2022-10-16T06:31:40;100670.81;;;12.29;66.47
32875;BME280;40468;42.128;24.750;2022-10-16T06:33:13;100678.56;;;12.55;66.30
32875;BME280;40468;42.128;24.750;2022-10-16T06:34:45;100674.13;;;12.79;65.98
32875;BME280;40468;42.128;24.750;2022-10-16T06:36:17;100678.03;;;13.11;65.37
32875;BME280;40468;42.128;24.750;2022-10-16T06:37:52;100678.97;;;13.51;64.95
32875;BME280;40468;42.128;24.750;2022-10-16T06:39:24;100687.06;;;13.85;64.28
32875;BME280;40468;42.128;24.750;2022-10-16T06:40:56;100689.72;;;14.23;63.16
32875;BME280;40468;42.128;24.750;2022-10-16T06:42:28;100688.16;;;14.57;61.94
32875;BME280;40468;42.128;24.750;2022-10-16T06:44:00;100696.00;;;14.93;60.94
32875;BME280;40468;42.128;24.750;2022-10-16T06:45:31;100689.63;;;15.34;59.95
32875;BME280;40468;42.128;24.750;2022-10-16T06:47:02;100691.16;;;15.73;58.44
32875;BME280;40468;42.128;24.750;2022-10-16T06:48:34;100692.69;;;16.10;57.05
32875;BME280;40468;42.128;24.750;2022-10-16T06:50:07;100690.31;;;16.53;56.06
32875;BME280;40468;42.128;24.750;2022-10-16T06:51:39;100696.25;;;16.88;54.09
32875;BME280;40468;42.128;24.750;2022-10-16T06:53:13;100691.59;;;17.23;53.25
32875;BME280;40468;42.128;24.750;2022-10-16T06:54:45;100694.66;;;17.46;51.65
32875;BME280;40468;42.128;24.750;2022-10-16T06:56:18;100701.81;;;17.58;50.44
32875;BME280;40468;42.128;24.750;2022-10-16T06:57:51;100700.56;;;17.80;49.99
32875;BME280;40468;42.128;24.750;2022-10-16T06:59:22;100699.44;;;17.84;49.86
32875;BME280;40468;42.128;24.750;2022-10-16T07:00:57;100701.72;;;17.74;49.56
32875;BME280;40468;42.128;24.750;2022-10-16T07:02:29;100695.34;;;17.64;49.85
32875;BME280;40468;42.128;24.750;2022-10-16T07:04:04;100708.50;;;17.49;49.72
32875;BME280;40468;42.128;24.750;2022-10-16T07:05:37;100708.69;;;17.61;49.22
32875;BME280;40468;42.128;24.750;2022-10-16T07:07:09;100705.59;;;17.54;49.19
32875;BME280;40468;42.128;24.750;2022-10-16T07:08:50;100704.16;;;17.48;49.30
32875;BME280;40468;42.128;24.750;2022-10-16T07:10:22;100702.00;;;17.55;49.13
32875;BME280;40468;42.128;24.750;2022-10-16T07:11:54;100704.00;;;17.66;48.70
32875;BME280;40468;42.128;24.750;2022-10-16T07:13:26;100707.81;;;17.90;48.22
32875;BME280;40468;42.128;24.750;2022-10-16T07:14:58;100715.53;;;18.22;47.94
32875;BME280;40468;42.128;24.750;2022-10-16T07:16:31;100710.28;;;18.49;47.39
32875;BME280;40468;42.128;24.750;2022-10-16T07:18:03;100712.22;;;18.74;46.98
32875;BME280;40468;42.128;24.750;2022-10-16T07:19:35;100720.25;;;19.00;46.43
32875;BME280;40468;42.128;24.750;2022-10-16T07:21:21;100715.97;;;19.24;45.85
32875;BME280;40468;42.128;24.750;2022-10-16T07:22:55;100708.59;;;19.42;45.57
32875;BME280;40468;42.128;24.750;2022-10-16T07:24:29;100717.06;;;19.60;45.08
32875;BME280;40468;42.128;24.750;2022-10-16T07:26:01;100704.53;;;19.76;44.91
32875;BME280;40468;42.128;24.750;2022-10-16T07:27:32;100710.44;;;19.93;44.52
32875;BME280;40468;42.128;24.750;2022-10-16T07:29:04;100708.53;;;20.08;44.11
32875;BME280;40468;42.128;24.750;2022-10-16T07:30:36;100704.38;;;20.16;43.60
32875;BME280;40468;42.128;24.750;2022-10-16T07:32:08;100702.56;;;20.17;43.26
32875;BME280;40468;42.128;24.750;2022-10-16T07:33:42;100705.78;;;20.09;42.87
32875;BME280;40468;42.128;24.750;2022-10-16T07:35:14;100699.22;;;20.15;43.40
32875;BME280;40468;42.128;24.750;2022-10-16T07:36:47;100708.91;;;20.27;43.00
32875;BME280;40468;42.128;24.750;2022-10-16T07:38:20;100695.66;;;20.40;42.98
32875;BME280;40468;42.128;24.750;2022-10-16T07:39:54;100697.13;;;20.44;42.70
32875;BME280;40468;42.128;24.750;2022-10-16T07:41:26;100702.81;;;20.51;42.28
32875;BME280;40468;42.128;24.750;2022-10-16T07:42:58;100698.47;;;20.50;42.21
32875;BME280;40468;42.128;24.750;2022-10-16T07:44:29;100704.31;;;20.55;42.35
32875;BME280;40468;42.128;24.750;2022-10-16T07:46:02;100701.56;;;20.56;41.98
32875;BME280;40468;42.128;24.750;2022-10-16T07:47:33;100703.78;;;20.62;41.76
32875;BME280;40468;42.128;24.750;2022-10-16T07:49:05;100700.53;;;20.70;41.71
32875;BME280;40468;42.128;24.750;2022-10-16T07:50:37;100697.44;;;20.76;41.53
32875;BME280;40468;42.128;24.750;2022-10-16T07:52:10;100698.34;;;20.88;41.34
32875;BME280;40468;42.128;24.750;2022-10-16T07:53:42;100691.88;;;20.92;41.12
32875;BME280;40468;42.128;24.750;2022-10-16T07:55:15;100710.25;;;21.06;41.35
32875;BME280;40468;42.128;24.750;2022-10-16T07:56:48;100699.09;;;21.25;41.36
32875;BME280;40468;42.128;24.750;2022-10-16T07:58:20;100699.44;;;21.45;41.13
32875;BME280;40468;42.128;24.750;2022-10-16T07:59:52;100694.88;;;21.69;40.94
32875;BME280;40468;42.128;24.750;2022-10-16T08:01:24;100697.41;;;21.93;39.88
32875;BME280;40468;42.128;24.750;2022-10-16T08:02:56;100702.53;;;22.19;39.81